Time;durP1;ratioP1;P1;durP2;ratioP2;P2;SDS_P1;SDS_P2;PMS_P1;PMS_P2;Temp;Humidity;BMP_temperature;BMP_pressure;BME280_temperature;BME280_humidity;BME280_pressure;Samples;Min_cycle;Max_cycle;Signal;HPM_P1;HPM_P2
2022/08/20 00:04:20;;;;;;;0.57;0.32;;;;;;;20.28;100.00;101616.72;10614068;28;20062;-77
2022/08/20 00:09:22;;;;;;;0.30;0.30;;;;;;;20.24;100.00;101608.88;10602609;28;20142;-77
2022/08/20 00:14:24;;;;;;;0.00;0.00;;;;;;;20.28;100.00;101606.25;10622957;28;20047;-77
2022/08/20 00:19:25;;;;;;;0.52;0.20;;;;;;;20.41;100.00;101603.59;10608386;28;20481;-77
2022/08/20 00:24:28;;;;;;;0.85;0.47;;;;;;;20.18;100.00;101601.91;10604104;28;20039;-77
2022/08/20 00:29:30;;;;;;;0.93;0.35;;;;;;;19.93;100.00;101632.50;10604326;28;20055;-76
2022/08/20 00:34:32;;;;;;;0.40;0.32;;;;;;;19.96;100.00;101629.84;10594878;28;20046;-76
2022/08/20 00:39:34;;;;;;;0.40;0.17;;;;;;;20.13;100.00;101635.09;10603717;28;20233;-76
2022/08/20 00:44:45;;;;;;;0.25;0.25;;;;;;;20.08;100.00;101634.19;10594967;28;20044;-76
2022/08/20 00:49:46;;;;;;;0.95;0.43;;;;;;;19.82;100.00;101622.03;10591226;28;20043;-75
2022/08/20 00:54:50;;;;;;;0.30;0.15;;;;;;;20.03;100.00;101630.72;10611384;28;20039;-77
2022/08/20 00:59:52;;;;;;;0.63;0.30;;;;;;;19.78;100.00;101625.50;10612412;28;20114;-78
2022/08/20 01:04:55;;;;;;;0.45;0.35;;;;;;;19.82;100.00;101638.56;10589274;28;20045;-77
2022/08/20 01:09:59;;;;;;;0.75;0.40;;;;;;;19.74;100.00;101634.22;10585472;28;20051;-77
2022/08/20 01:15:03;;;;;;;0.50;0.20;;;;;;;19.85;100.00;101632.50;10578420;28;20425;-77
2022/08/20 01:20:10;;;;;;;0.52;0.52;;;;;;;19.83;100.00;101634.22;10582124;28;20047;-77
2022/08/20 01:25:22;;;;;;;0.75;0.57;;;;;;;19.61;100.00;101629.00;10590689;28;20040;-77
2022/08/20 01:30:27;;;;;;;0.30;0.20;;;;;;;19.62;100.00;101638.56;10605590;28;20062;-77
2022/08/20 01:35:35;;;;;;;0.45;0.20;;;;;;;19.71;100.00;101636.81;10589585;28;20039;-77
2022/08/20 01:41:10;;;;;;;0.20;0.20;;;;;;;19.68;100.00;101631.63;10601691;28;20441;-77
2022/08/20 01:46:13;;;;;;;0.85;0.32;;;;;;;19.60;100.00;101632.50;10578601;28;20070;-78
2022/08/20 01:51:19;;;;;;;0.30;0.20;;;;;;;19.61;100.00;101639.47;10578525;28;20119;-77
2022/08/20 01:56:24;;;;;;;0.40;0.40;;;;;;;19.55;100.00;101642.06;10597391;28;20047;-77
2022/08/20 02:01:39;;;;;;;0.35;0.35;;;;;;;19.72;100.00;101652.53;10581985;28;20047;-77
2022/08/20 02:06:51;;;;;;;1.98;0.68;;;;;;;19.62;100.00;101641.19;10596633;28;20077;-77
2022/08/20 02:11:58;;;;;;;0.00;0.00;;;;;;;19.55;100.00;101647.28;10582678;28;20079;-77
2022/08/20 02:16:59;;;;;;;0.05;0.05;;;;;;;19.42;100.00;101648.16;10597620;28;20036;-77
2022/08/20 02:22:10;;;;;;;0.45;0.40;;;;;;;19.39;100.00;101649.03;10584771;28;20383;-78
2022/08/20 02:27:12;;;;;;;0.47;0.40;;;;;;;19.29;100.00;101649.88;10573944;28;20040;-78
2022/08/20 02:32:14;;;;;;;0.32;0.30;;;;;;;19.27;100.00;101654.25;10596693;28;20474;-77
2022/08/20 02:37:36;;;;;;;1.65;0.40;;;;;;;18.93;100.00;101657.63;10597853;28;20088;-77
2022/08/20 02:42:38;;;;;;;0.00;0.00;;;;;;;19.06;100.00;101660.28;10578860;28;20077;-77
2022/08/20 02:47:42;;;;;;;0.60;0.40;;;;;;;18.87;100.00;101661.06;10582291;28;20050;-78
2022/08/20 02:52:44;;;;;;;0.20;0.20;;;;;;;18.86;100.00;101648.00;10605741;28;20070;-77
2022/08/20 02:57:54;;;;;;;0.10;0.10;;;;;;;18.93;100.00;101643.69;10574879;28;20054;-78
2022/08/20 03:02:59;;;;;;;0.30;0.28;;;;;;;18.87;100.00;101639.31;10581748;28;20051;-78
2022/08/20 03:08:02;;;;;;;0.35;0.32;;;;;;;18.74;100.00;101627.94;10579290;28;20490;-77
2022/08/20 03:13:05;;;;;;;0.32;0.30;;;;;;;18.79;100.00;101625.38;10597294;28;20444;-77
2022/08/20 03:18:07;;;;;;;1.05;0.60;;;;;;;18.94;100.00;101625.44;10587927;28;20562;-78
2022/08/20 03:23:09;;;;;;;0.00;0.00;;;;;;;18.95;100.00;101624.53;10611602;28;20376;-77
2022/08/20 03:28:12;;;;;;;0.50;0.28;;;;;;;18.93;100.00;101618.47;10601997;28;20085;-78
2022/08/20 03:33:15;;;;;;;0.10;0.10;;;;;;;18.90;100.00;101631.47;10600161;28;20138;-78
2022/08/20 03:38:18;;;;;;;0.13;0.13;;;;;;;18.95;100.00;101629.78;10611355;28;20095;-77
2022/08/20 03:43:34;;;;;;;0.20;0.20;;;;;;;18.44;100.00;101628.69;10598514;28;20036;-77
2022/08/20 03:48:36;;;;;;;0.30;0.30;;;;;;;18.47;100.00;101645.22;10607270;27;20403;-77
2022/08/20 03:53:38;;;;;;;1.02;0.47;;;;;;;18.82;100.00;101635.78;10586592;28;20043;-77
2022/08/20 03:58:39;;;;;;;0.28;0.20;;;;;;;18.87;100.00;101641.94;10587168;28;20059;-77
2022/08/20 04:03:41;;;;;;;0.10;0.10;;;;;;;18.67;100.00;101637.50;10608601;28;20047;-76
2022/08/20 04:08:43;;;;;;;0.63;0.50;;;;;;;18.39;100.00;101639.97;10598280;28;20475;-76
2022/08/20 04:13:44;;;;;;;0.90;0.43;;;;;;;18.05;100.00;101657.16;10600118;28;20051;-76
2022/08/20 04:18:49;;;;;;;0.10;0.10;;;;;;;18.17;100.00;101657.22;10592541;28;20046;-77
2022/08/20 04:24:04;;;;;;;0.00;0.00;;;;;;;18.08;100.00;101658.06;10593981;28;20139;-77
2022/08/20 04:29:05;;;;;;;0.00;0.00;;;;;;;17.90;100.00;101668.31;10586173;28;20524;-76
2022/08/20 04:34:07;;;;;;;0.03;0.03;;;;;;;18.10;100.00;101671.09;10596664;28;20047;-76
2022/08/20 04:39:09;;;;;;;0.00;0.00;;;;;;;18.15;100.00;101663.28;10581885;28;20500;-77
2022/08/20 04:44:11;;;;;;;0.10;0.10;;;;;;;18.33;100.00;101672.97;10589560;28;20063;-76
2022/08/20 04:49:13;;;;;;;0.85;0.30;;;;;;;18.33;100.00;101679.09;10615047;27;20121;-76
2022/08/20 04:54:15;;;;;;;0.00;0.00;;;;;;;18.19;100.00;101685.94;10593816;28;20115;-76
2022/08/20 04:59:17;;;;;;;0.63;0.20;;;;;;;18.38;100.00;101687.78;10584342;28;20446;-76
2022/08/20 05:04:18;;;;;;;0.15;0.00;;;;;;;18.34;100.00;101685.16;10589678;28;20126;-76
2022/08/20 05:09:20;;;;;;;0.00;0.00;;;;;;;18.51;100.00;101695.69;10572518;28;20130;-76
2022/08/20 05:14:21;;;;;;;0.30;0.30;;;;;;;18.19;100.00;101696.38;10605130;28;20048;-76
2022/08/20 05:19:23;;;;;;;0.17;0.17;;;;;;;18.20;100.00;101721.59;10604461;28;20073;-76
2022/08/20 05:24:25;;;;;;;0.15;0.10;;;;;;;18.72;100.00;101721.03;10579548;28;20058;-76
2022/08/20 05:29:27;;;;;;;0.35;0.35;;;;;;;18.66;100.00;101715.78;10580641;28;20104;-76
2022/08/20 05:34:29;;;;;;;0.77;0.47;;;;;;;18.48;100.00;101712.19;10598527;28;20045;-76
2022/08/20 05:39:30;;;;;;;1.90;0.85;;;;;;;19.01;100.00;101708.16;10584996;28;20039;-76
2022/08/20 05:44:37;;;;;;;0.20;0.20;;;;;;;19.15;100.00;101702.97;10581947;28;20048;-76
2022/08/20 05:49:39;;;;;;;0.35;0.28;;;;;;;19.23;100.00;101708.22;10602945;28;20039;-76
2022/08/20 05:54:41;;;;;;;0.20;0.20;;;;;;;19.11;100.00;101701.22;10583830;28;20051;-76
2022/08/20 06:00:09;;;;;;;1.38;0.73;;;;;;;19.21;100.00;101709.94;10584431;28;20138;-76
2022/08/20 06:05:17;;;;;;;0.82;0.52;;;;;;;19.26;100.00;101723.88;10584232;28;20055;-76
2022/08/20 06:10:19;;;;;;;0.73;0.47;;;;;;;19.20;100.00;101717.78;10604008;28;20043;-76
2022/08/20 06:15:21;;;;;;;0.57;0.47;;;;;;;19.31;100.00;101729.13;10596768;28;20036;-76
2022/08/20 06:20:24;;;;;;;2.47;0.75;;;;;;;19.26;100.00;101720.41;10604860;28;20047;-76
2022/08/20 06:25:26;;;;;;;0.38;0.38;;;;;;;19.21;100.00;101720.41;10602879;28;20415;-76
2022/08/20 06:30:28;;;;;;;0.75;0.10;;;;;;;19.80;100.00;101725.72;10582115;28;20070;-76
2022/08/20 06:35:31;;;;;;;0.28;0.28;;;;;;;19.98;100.00;101722.28;10598181;28;20067;-76
2022/08/20 06:40:34;;;;;;;4.05;0.40;;;;;;;19.96;100.00;101724.91;10579142;28;20055;-77
2022/08/20 06:45:37;;;;;;;0.98;0.30;;;;;;;19.92;100.00;101730.97;10571679;28;20119;-76
2022/08/20 06:50:44;;;;;;;0.10;0.10;;;;;;;19.63;100.00;101730.94;10573506;28;20048;-76
2022/08/20 06:55:53;;;;;;;0.20;0.20;;;;;;;19.97;100.00;101716.19;10551965;28;20489;-76
2022/08/20 07:00:55;;;;;;;1.05;0.30;;;;;;;20.31;100.00;101709.16;10573738;28;20073;-76
2022/08/20 07:05:58;;;;;;;0.50;0.30;;;;;;;20.58;100.00;101701.25;10554652;28;20048;-76
2022/08/20 07:11:00;;;;;;;0.75;0.32;;;;;;;20.36;100.00;101707.41;10571501;28;20085;-75
2022/08/20 07:16:05;;;;;;;1.38;1.10;;;;;;;20.14;100.00;101710.06;10568098;28;20506;-76
2022/08/20 07:21:07;;;;;;;0.20;0.20;;;;;;;20.43;100.00;101681.22;10588997;28;20067;-76
2022/08/20 07:26:08;;;;;;;0.25;0.25;;;;;;;21.70;100.00;101657.00;10572097;28;20047;-76
2022/08/20 07:36:32;;;;;;;0.57;0.28;;;;;;;21.59;100.00;101626.50;10587979;28;20036;-77
2022/08/20 07:41:33;;;;;;;0.52;0.45;;;;;;;22.09;100.00;101621.66;10588569;28;20048;-76
2022/08/20 07:46:35;;;;;;;0.32;0.22;;;;;;;22.15;100.00;101626.84;10575176;27;20058;-76
2022/08/20 07:51:48;;;;;;;0.10;0.10;;;;;;;22.22;100.00;101623.25;10587475;28;20056;-76
2022/08/20 07:56:54;;;;;;;2.25;0.43;;;;;;;22.00;100.00;101620.88;10586221;28;20048;-76
2022/08/20 08:01:56;;;;;;;0.10;0.10;;;;;;;21.15;100.00;101637.28;10569130;28;20056;-76
2022/08/20 08:07:06;;;;;;;19.98;1.65;;;;;;;21.91;100.00;101633.22;10549697;28;20068;-76
2022/08/20 08:12:07;;;;;;;;;;;;;;;22.38;100.00;101613.44;10561221;28;20411;-78
2022/08/20 08:17:10;;;;;;;0.15;0.10;;;;;;;22.39;100.00;101619.59;10563077;28;20370;-76
2022/08/20 08:22:15;;;;;;;1.08;0.43;;;;;;;21.95;100.00;101624.41;10578976;28;20043;-76
2022/08/20 08:27:20;;;;;;;2.30;0.63;;;;;;;21.53;100.00;101617.78;10555057;28;20062;-76
2022/08/20 08:32:23;;;;;;;0.10;0.00;;;;;;;21.75;100.00;101625.50;10553994;28;20055;-76
2022/08/20 08:37:25;;;;;;;0.10;0.10;;;;;;;21.66;100.00;101633.44;10561089;28;20043;-76
2022/08/20 08:42:42;;;;;;;0.43;0.43;;;;;;;22.26;100.00;101635.47;10576166;28;20092;-76
2022/08/20 08:47:44;;;;;;;0.65;0.30;;;;;;;22.94;100.00;101618.00;10543642;28;20048;-76
2022/08/20 08:52:52;;;;;;;0.10;0.10;;;;;;;23.21;100.00;101615.88;10580371;28;20072;-76
2022/08/20 08:57:57;;;;;;;0.52;0.30;;;;;;;22.89;100.00;101625.09;10594119;28;20040;-75
2022/08/20 09:03:14;;;;;;;2.53;1.30;;;;;;;22.91;100.00;101639.06;10587870;28;20568;-76
2022/08/20 09:08:41;;;;;;;0.08;0.08;;;;;;;22.82;100.00;101643.53;10590814;28;20097;-76
2022/08/20 09:13:43;;;;;;;0.30;0.13;;;;;;;22.43;100.00;101637.94;10555846;28;1028521;-76
2022/08/20 09:18:45;;;;;;;0.10;0.10;;;;;;;23.13;100.00;101632.59;10585646;28;20116;-76
2022/08/20 09:23:46;;;;;;;1.45;0.30;;;;;;;23.37;100.00;101630.50;10612757;28;20046;-76
2022/08/20 09:28:48;;;;;;;0.40;0.22;;;;;;;24.08;100.00;101626.69;10608398;28;20106;-76
2022/08/20 09:33:52;;;;;;;0.08;0.08;;;;;;;24.24;100.00;101626.34;10590107;28;20086;-76
2022/08/20 09:38:55;;;;;;;0.05;0.05;;;;;;;25.39;100.00;101623.91;10577719;28;20039;-76
2022/08/20 09:43:57;;;;;;;0.00;0.00;;;;;;;24.90;100.00;101620.63;10559557;28;20395;-76
2022/08/20 09:49:00;;;;;;;0.20;0.15;;;;;;;24.06;97.04;101627.59;10561965;27;20130;-76
2022/08/20 09:54:02;;;;;;;0.28;0.20;;;;;;;24.84;86.45;101627.78;10559843;28;20502;-76
2022/08/20 09:59:04;;;;;;;0.00;0.00;;;;;;;24.32;80.64;101634.13;10558136;28;20052;-76
2022/08/20 10:04:06;;;;;;;0.10;0.10;;;;;;;25.65;80.39;101621.44;10562973;28;20040;-76
2022/08/20 10:09:08;;;;;;;0.28;0.28;;;;;;;25.69;74.50;101621.38;10558521;28;20078;-76
2022/08/20 10:14:09;;;;;;;0.00;0.00;;;;;;;26.70;79.39;101617.69;10533212;28;20076;-76
2022/08/20 10:19:11;;;;;;;0.32;0.22;;;;;;;25.83;76.27;101627.16;10562366;28;20048;-76
2022/08/20 10:24:13;;;;;;;1.23;0.17;;;;;;;25.21;75.52;101628.66;10581262;28;20047;-76
2022/08/20 10:29:15;;;;;;;0.10;0.00;;;;;;;26.34;77.50;101623.16;10549086;28;20044;-76
2022/08/20 10:34:18;;;;;;;0.10;0.10;;;;;;;26.12;70.88;101630.81;10572076;28;20096;-76
2022/08/20 10:39:20;;;;;;;0.10;0.10;;;;;;;26.00;71.52;101625.84;10556217;28;20044;-76
2022/08/20 10:44:21;;;;;;;1.10;0.15;;;;;;;24.96;77.38;101626.63;10576908;28;20097;-76
2022/08/20 10:49:23;;;;;;;0.00;0.00;;;;;;;26.29;66.54;101633.84;10574791;28;20040;-75
2022/08/20 10:54:25;;;;;;;0.22;0.20;;;;;;;26.17;71.66;101623.66;10575628;28;20032;-77
2022/08/20 10:59:26;;;;;;;0.10;0.10;;;;;;;24.55;77.00;101633.63;10565340;28;20278;-76
2022/08/20 11:04:28;;;;;;;0.10;0.10;;;;;;;24.67;80.85;101630.78;10575523;28;20046;-76
2022/08/20 11:09:29;;;;;;;0.00;0.00;;;;;;;25.51;74.91;101628.84;10553201;28;20048;-77
2022/08/20 11:14:32;;;;;;;0.00;0.00;;;;;;;25.60;71.59;101625.13;10553326;28;20047;-76
2022/08/20 11:19:42;;;;;;;0.08;0.08;;;;;;;24.42;82.95;101637.44;10571129;28;20047;-76
2022/08/20 11:24:45;;;;;;;0.20;0.10;;;;;;;24.24;86.87;101636.88;10541546;28;20087;-76
2022/08/20 11:29:47;;;;;;;0.35;0.35;;;;;;;24.34;86.28;101646.34;10541416;22;20067;-77
2022/08/20 11:34:49;;;;;;;0.15;0.08;;;;;;;24.15;81.74;101645.84;10487004;28;20044;-77
2022/08/20 11:39:51;;;;;;;0.00;0.00;;;;;;;24.70;73.82;101648.28;10523721;28;20131;-77
2022/08/20 11:44:53;;;;;;;0.57;0.45;;;;;;;26.06;70.90;101644.16;10494095;28;20131;-77
2022/08/20 11:50:01;;;;;;;0.20;0.10;;;;;;;26.01;70.67;101635.50;10502962;28;20044;-77
2022/08/20 11:55:09;;;;;;;0.23;0.20;;;;;;;27.00;71.17;101625.59;10519783;28;20058;-77
2022/08/20 12:00:17;;;;;;;2.10;0.52;;;;;;;25.76;74.40;101628.22;10517757;28;20453;-77
2022/08/20 12:05:19;;;;;;;0.22;0.17;;;;;;;25.76;66.70;101622.94;10490058;28;20048;-77
2022/08/20 12:10:23;;;;;;;0.70;0.30;;;;;;;24.92;73.68;101630.22;10511014;28;20040;-77
2022/08/20 12:15:26;;;;;;;0.00;0.00;;;;;;;25.21;76.87;101631.31;10498304;28;20056;-77
2022/08/20 12:20:28;;;;;;;1.27;0.82;;;;;;;25.27;75.06;101631.19;10496281;28;20047;-77
2022/08/20 12:25:29;;;;;;;0.38;0.38;;;;;;;25.60;71.71;101631.25;10512871;28;20097;-77
2022/08/20 12:30:32;;;;;;;0.15;0.08;;;;;;;26.41;69.09;101634.38;10490951;28;20048;-77
2022/08/20 12:35:35;;;;;;;0.00;0.00;;;;;;;26.64;62.42;101623.16;10501559;28;20050;-77
2022/08/20 12:40:36;;;;;;;0.38;0.17;;;;;;;26.84;63.19;101627.00;10489777;28;20125;-76
2022/08/20 12:45:38;;;;;;;0.38;0.38;;;;;;;25.69;66.19;101637.22;10516488;28;20097;-77
2022/08/20 12:50:42;;;;;;;0.47;0.25;;;;;;;25.26;66.70;101629.44;10512461;28;20106;-78
2022/08/20 12:55:44;;;;;;;1.02;0.25;;;;;;;26.28;68.08;101629.47;10515933;28;20036;-77
2022/08/20 13:00:47;;;;;;;0.70;0.30;;;;;;;26.57;63.11;101627.75;10515676;28;20056;-76
2022/08/20 13:05:51;;;;;;;0.55;0.50;;;;;;;26.80;59.24;101620.09;10522843;28;20040;-77
2022/08/20 13:10:53;;;;;;;0.00;0.00;;;;;;;25.89;56.19;101621.72;10519236;28;20495;-76
2022/08/20 13:15:55;;;;;;;0.10;0.10;;;;;;;26.72;52.84;101620.25;10513014;28;20052;-77
2022/08/20 13:21:00;;;;;;;1.45;0.30;;;;;;;26.17;51.77;101617.47;10527697;28;20082;-77
2022/08/20 13:26:01;;;;;;;0.45;0.43;;;;;;;25.69;55.84;101608.19;10535412;28;20043;-76
2022/08/20 13:31:03;;;;;;;0.00;0.00;;;;;;;25.64;62.94;101614.47;10509416;28;20142;-76
2022/08/20 13:36:05;;;;;;;0.30;0.30;;;;;;;24.82;60.20;101603.22;10501051;28;20052;-77
2022/08/20 13:41:06;;;;;;;1.88;0.30;;;;;;;25.33;60.76;101607.28;10518060;28;20044;-77
2022/08/20 13:46:08;;;;;;;0.00;0.00;;;;;;;25.36;60.21;101603.72;10517580;28;20055;-76
2022/08/20 13:51:10;;;;;;;0.00;0.00;;;;;;;24.96;68.72;101584.47;10514467;28;20052;-77
2022/08/20 13:56:11;;;;;;;1.23;0.15;;;;;;;24.78;70.58;101595.41;10517070;28;20048;-77
2022/08/20 14:01:13;;;;;;;0.13;0.13;;;;;;;24.84;67.12;101592.63;10515838;28;20044;-77
2022/08/20 14:06:17;;;;;;;7.32;0.38;;;;;;;24.55;58.78;101595.00;10511836;28;20101;-76
2022/08/20 14:11:19;;;;;;;0.00;0.00;;;;;;;24.82;67.73;101591.81;10534387;28;20074;-76
2022/08/20 14:16:21;;;;;;;0.00;0.00;;;;;;;24.36;66.33;101591.91;10513579;28;20036;-77
2022/08/20 14:21:28;;;;;;;0.00;0.00;;;;;;;24.91;64.26;101593.38;10516149;28;20082;-76
2022/08/20 14:26:30;;;;;;;2.38;0.65;;;;;;;25.80;58.55;101600.88;10534239;28;20459;-76
2022/08/20 14:31:31;;;;;;;0.00;0.00;;;;;;;25.74;50.38;101606.28;10531229;28;20065;-76
2022/08/20 14:36:33;;;;;;;2.22;0.20;;;;;;;26.45;51.95;101607.00;10507198;28;20063;-77
2022/08/20 14:41:34;;;;;;;0.15;0.10;;;;;;;26.12;45.48;101614.97;10515995;28;20059;-77
2022/08/20 14:46:36;;;;;;;0.00;0.00;;;;;;;26.17;47.76;101610.44;10533535;28;20097;-76
2022/08/20 14:51:37;;;;;;;0.00;0.00;;;;;;;25.02;48.39;101613.31;10516122;28;20063;-77
2022/08/20 14:56:39;;;;;;;0.32;0.03;;;;;;;24.96;57.22;101610.81;10515200;28;20106;-76
2022/08/20 15:01:41;;;;;;;0.30;0.10;;;;;;;25.88;48.60;101606.78;10515181;28;20071;-76
2022/08/20 15:06:44;;;;;;;1.63;0.25;;;;;;;26.03;48.18;101609.91;10515379;28;20043;-76
2022/08/20 15:11:46;;;;;;;0.63;0.20;;;;;;;25.17;51.51;101612.06;10540321;28;20063;-76
2022/08/20 15:16:47;;;;;;;0.10;0.10;;;;;;;25.30;54.70;101612.63;10519116;28;20043;-76
2022/08/20 15:21:49;;;;;;;1.45;0.98;;;;;;;25.11;55.37;101612.22;10540859;28;20040;-76
2022/08/20 15:26:51;;;;;;;0.55;0.28;;;;;;;24.71;60.47;101614.00;10535880;28;20544;-77
2022/08/20 15:31:52;;;;;;;1.42;0.43;;;;;;;24.85;53.17;101604.91;10510530;28;20495;-76
2022/08/20 15:36:56;;;;;;;0.30;0.22;;;;;;;24.92;57.15;101598.59;10519746;28;20139;-76
2022/08/20 15:41:59;;;;;;;0.00;0.00;;;;;;;24.58;62.31;101603.72;10522146;28;20725;-76
2022/08/20 15:47:23;;;;;;;0.00;0.00;;;;;;;24.97;58.79;101602.00;10506671;28;20044;-76
2022/08/20 15:52:32;;;;;;;0.00;0.00;;;;;;;25.16;55.42;101606.84;10510675;28;20056;-77
2022/08/20 15:57:52;;;;;;;0.28;0.10;;;;;;;24.70;55.53;101607.00;10518017;28;20032;-76
2022/08/20 16:03:12;;;;;;;0.50;0.30;;;;;;;24.50;57.05;101614.44;10486621;28;20101;-76
2022/08/20 16:08:20;;;;;;;0.13;0.10;;;;;;;24.98;53.58;101602.88;10520929;28;20445;-76
2022/08/20 16:13:28;;;;;;;0.22;0.10;;;;;;;25.34;51.67;101592.31;10535108;28;20127;-76
2022/08/20 16:18:33;;;;;;;1.83;0.93;;;;;;;24.85;56.24;101594.38;10521197;28;20048;-76
2022/08/20 16:23:39;;;;;;;0.22;0.10;;;;;;;24.31;59.38;101598.16;10521895;28;20506;-76
2022/08/20 16:29:05;;;;;;;2.17;0.13;;;;;;;24.57;64.47;101594.97;10536238;28;20036;-76
2022/08/20 16:34:35;;;;;;;0.38;0.30;;;;;;;24.64;56.46;101600.97;10539154;28;20075;-76
2022/08/20 16:39:47;;;;;;;0.30;0.10;;;;;;;24.54;61.91;101602.91;10538877;28;20036;-76
2022/08/20 16:44:53;;;;;;;0.47;0.22;;;;;;;24.33;64.09;101606.91;10520584;28;20517;-76
2022/08/20 16:50:02;;;;;;;0.25;0.00;;;;;;;24.52;59.96;101604.75;10538469;28;20052;-76
2022/08/20 16:55:04;;;;;;;1.38;0.38;;;;;;;24.58;64.12;101608.97;10520288;28;20059;-76
2022/08/20 17:00:29;;;;;;;0.25;0.17;;;;;;;24.42;63.55;101613.72;10519422;28;20075;-76
2022/08/20 17:05:37;;;;;;;0.00;0.00;;;;;;;24.19;70.28;101615.06;10533588;28;20138;-75
2022/08/20 17:10:55;;;;;;;0.00;0.00;;;;;;;24.11;70.49;101615.22;10514747;28;20042;-76
2022/08/20 17:16:03;;;;;;;0.50;0.15;;;;;;;24.14;72.49;101609.03;10519469;28;20059;-76
2022/08/20 17:21:24;;;;;;;0.15;0.15;;;;;;;23.85;79.00;101610.41;10536531;28;20040;-76
2022/08/20 17:26:34;;;;;;;0.00;0.00;;;;;;;23.69;77.10;101608.06;10506348;28;20109;-76
2022/08/20 17:31:40;;;;;;;0.40;0.10;;;;;;;23.43;82.38;101598.84;10512550;28;20105;-77
2022/08/20 17:36:52;;;;;;;0.00;0.00;;;;;;;23.58;82.51;101603.00;10514697;28;20051;-76
2022/08/20 17:42:31;;;;;;;0.00;0.00;;;;;;;23.50;90.15;101607.53;10517982;28;20549;-76
2022/08/20 17:47:42;;;;;;;0.10;0.10;;;;;;;23.11;85.60;101616.00;10510558;28;20376;-76
2022/08/20 17:52:54;;;;;;;0.10;0.10;;;;;;;22.86;90.97;101614.59;10497629;28;20047;-76
2022/08/20 17:58:01;;;;;;;0.00;0.00;;;;;;;22.76;98.03;101619.97;10518278;28;20545;-76
2022/08/20 18:03:12;;;;;;;0.85;0.50;;;;;;;22.48;98.18;101630.00;10518433;28;20059;-75
2022/08/20 18:08:36;;;;;;;0.20;0.17;;;;;;;22.47;100.00;101628.25;10517609;28;20056;-75
2022/08/20 18:13:59;;;;;;;1.02;0.40;;;;;;;22.32;100.00;101639.75;10534227;28;20449;-75
2022/08/20 18:19:15;;;;;;;0.10;0.10;;;;;;;22.12;100.00;101626.84;10517241;28;20040;-77
2022/08/20 18:24:24;;;;;;;0.90;0.50;;;;;;;22.03;100.00;101633.06;10494864;28;20072;-77
2022/08/20 18:29:32;;;;;;;0.00;0.00;;;;;;;21.82;100.00;101650.78;10532685;28;20043;-77
2022/08/20 18:34:38;;;;;;;11.90;0.20;;;;;;;21.71;100.00;101642.13;10525933;28;20040;-77
2022/08/20 18:39:44;;;;;;;0.03;0.03;;;;;;;21.52;100.00;101652.75;10515901;28;20499;-76
2022/08/20 18:44:47;;;;;;;0.00;0.00;;;;;;;21.39;100.00;101657.19;10538820;28;20454;-76
2022/08/20 18:50:07;;;;;;;0.10;0.10;;;;;;;21.29;100.00;101665.13;10525491;28;20403;-75
2022/08/20 18:55:40;;;;;;;0.75;0.25;;;;;;;21.17;100.00;101681.81;10530714;28;20051;-76
2022/08/20 19:00:45;;;;;;;0.90;0.20;;;;;;;20.88;100.00;101683.72;10540175;28;20032;-76
2022/08/20 19:06:25;;;;;;;0.15;0.10;;;;;;;20.87;100.00;101688.94;10499697;28;20048;-76
2022/08/20 19:11:44;;;;;;;0.08;0.05;;;;;;;20.66;100.00;101706.47;10515282;28;20059;-76
2022/08/20 19:16:51;;;;;;;0.00;0.00;;;;;;;20.69;100.00;101697.72;10541989;28;20441;-76
2022/08/20 19:21:55;;;;;;;0.20;0.17;;;;;;;20.63;100.00;101700.34;10540441;28;20047;-75
2022/08/20 19:27:08;;;;;;;0.45;0.20;;;;;;;20.66;100.00;101700.34;10523377;28;20113;-76
2022/08/20 19:32:24;;;;;;;0.05;0.05;;;;;;;20.61;100.00;101703.00;10507296;28;20178;-76
2022/08/20 19:37:30;;;;;;;0.10;0.10;;;;;;;20.58;100.00;101709.13;10502357;28;20040;-77
2022/08/20 19:42:52;;;;;;;0.10;0.10;;;;;;;20.54;100.00;101717.84;10518863;28;20380;-76
2022/08/20 19:48:31;;;;;;;0.17;0.10;;;;;;;20.55;100.00;101716.97;10518977;28;20040;-76
2022/08/20 19:53:34;;;;;;;1.90;0.10;;;;;;;20.49;100.00;101718.72;10539716;28;20139;-76
2022/08/20 19:58:36;;;;;;;0.17;0.15;;;;;;;20.45;100.00;101728.31;10521463;28;20158;-76
2022/08/20 20:03:38;;;;;;;0.90;0.28;;;;;;;20.27;100.00;101729.22;10523560;28;20043;-75
2022/08/20 20:08:51;;;;;;;0.00;0.00;;;;;;;20.21;100.00;101724.88;10504028;28;20048;-76
2022/08/20 20:13:53;;;;;;;0.32;0.20;;;;;;;20.00;100.00;101730.09;10539399;28;20059;-76
2022/08/20 20:18:55;;;;;;;0.22;0.22;;;;;;;19.82;100.00;101726.59;10538954;28;20043;-76
2022/08/20 20:24:27;;;;;;;0.00;0.00;;;;;;;19.60;100.00;101734.44;10537475;28;20123;-75
2022/08/20 20:30:15;;;;;;;0.20;0.20;;;;;;;19.30;100.00;101743.94;10491830;28;20538;-75
2022/08/20 20:36:30;;;;;;;0.08;0.00;;;;;;;18.93;100.00;101751.63;10518574;28;20048;-75
2022/08/20 20:41:59;;;;;;;0.05;0.05;;;;;;;18.85;100.00;101751.53;10539930;28;20080;-75
2022/08/20 20:47:50;;;;;;;0.10;0.03;;;;;;;18.49;100.00;101752.22;10508783;28;20437;-75
2022/08/20 20:53:00;;;;;;;;;;;;;;;18.32;100.00;101745.16;10460886;28;20056;-75
2022/08/20 20:58:56;;;;;;;0.22;0.10;;;;;;;18.07;100.00;101749.31;10519550;28;20019;-76
2022/08/20 21:04:29;;;;;;;0.15;0.15;;;;;;;17.82;100.00;101756.00;10484396;22;20036;-74
2022/08/20 21:10:34;;;;;;;0.13;0.05;;;;;;;17.80;100.00;101750.75;10524570;28;20116;-75
2022/08/20 21:15:56;;;;;;;0.17;0.10;;;;;;;17.41;100.00;101768.59;10480739;22;20306;-80
2022/08/20 21:20:59;;;;;;;0.28;0.15;;;;;;;17.25;100.00;101762.34;10269207;28;20375;-79
2022/08/20 21:26:02;;;;;;;0.25;0.17;;;;;;;17.19;100.00;101767.50;10249836;28;20485;-80
2022/08/20 21:31:15;;;;;;;0.47;0.20;;;;;;;17.04;100.00;101757.75;10410029;22;20139;-74
2022/08/20 21:36:30;;;;;;;1.55;0.47;;;;;;;16.75;100.00;101760.81;10572294;28;20051;-74
2022/08/20 21:41:45;;;;;;;0.35;0.20;;;;;;;16.64;100.00;101758.06;10526339;28;20099;-75
2022/08/20 21:46:53;;;;;;;1.60;0.45;;;;;;;16.43;100.00;101753.41;10548222;28;20052;-74
2022/08/20 21:51:55;;;;;;;0.38;0.20;;;;;;;16.32;100.00;101765.38;10540158;28;20063;-74
2022/08/20 21:57:19;;;;;;;0.38;0.30;;;;;;;16.16;100.00;101759.94;10520419;28;20056;-77
2022/08/20 22:02:45;;;;;;;0.20;0.20;;;;;;;15.97;100.00;101755.28;10523906;28;20052;-79
2022/08/20 22:08:00;;;;;;;0.28;0.10;;;;;;;15.89;100.00;101760.31;10538848;28;20047;-79
2022/08/20 22:13:02;;;;;;;0.00;0.00;;;;;;;15.85;100.00;101759.41;10525165;28;20069;-78
2022/08/20 22:18:04;;;;;;;0.65;0.30;;;;;;;15.68;100.00;101766.84;10508430;28;20108;-78
2022/08/20 22:23:06;;;;;;;0.35;0.20;;;;;;;15.71;100.00;101751.31;10542432;28;20048;-78
2022/08/20 22:28:08;;;;;;;0.45;0.32;;;;;;;15.40;100.00;101749.88;10522500;28;20047;-78
2022/08/20 22:33:12;;;;;;;0.22;0.22;;;;;;;15.29;100.00;101761.78;10549037;28;20507;-78
2022/08/20 22:38:15;;;;;;;0.10;0.10;;;;;;;15.36;100.00;101758.44;10543318;28;20451;-78
2022/08/20 22:43:17;;;;;;;0.17;0.08;;;;;;;15.36;100.00;101763.66;10542541;28;20127;-78
2022/08/20 22:48:20;;;;;;;0.40;0.22;;;;;;;15.37;100.00;101750.69;10541587;28;20040;-78
2022/08/20 22:53:24;;;;;;;0.30;0.20;;;;;;;15.15;100.00;101756.28;10543848;28;20055;-79
2022/08/20 22:58:25;;;;;;;0.13;0.10;;;;;;;14.85;100.00;101760.88;10526151;28;20043;-78
2022/08/20 23:03:32;;;;;;;0.05;0.03;;;;;;;14.36;100.00;101757.09;10541815;28;20558;-78
2022/08/20 23:08:41;;;;;;;0.30;0.30;;;;;;;14.60;100.00;101755.09;10502275;28;20044;-79
2022/08/20 23:13:42;;;;;;;0.13;0.13;;;;;;;14.38;100.00;101750.25;10515435;28;20506;-75
2022/08/20 23:18:44;;;;;;;1.13;0.35;;;;;;;14.44;100.00;101752.97;10523941;28;20094;-74
2022/08/20 23:23:46;;;;;;;0.35;0.35;;;;;;;14.17;100.00;101738.53;10523673;28;20048;-75
2022/08/20 23:28:48;;;;;;;0.10;0.10;;;;;;;14.17;100.00;101748.91;10521003;28;20131;-74